Time;durP1;ratioP1;P1;durP2;ratioP2;P2;SDS_P1;SDS_P2;PMS_P1;PMS_P2;Temp;Humidity;BMP_temperature;BMP_pressure;BME280_temperature;BME280_humidity;BME280_pressure;Samples;Min_cycle;Max_cycle;Signal;HPM_P1;HPM_P2
2023/08/19 00:00:53;;;;;;;;;;;;;;;25.97;67.70;101226.75;3969228;29;19933;-70
2023/08/19 00:02:55;;;;;;;;;;;;;;;25.97;68.02;101223.09;3968960;29;20008;-71
2023/08/19 00:04:58;;;;;;;;;;;;;;;25.95;67.92;101223.38;3968701;29;20020;-70
2023/08/19 00:07:00;;;;;;;;;;;;;;;25.94;67.74;101224.50;3968111;29;20020;-70
2023/08/19 00:09:06;;;;;;;;;;;;;;;25.93;67.72;101222.81;3969306;29;20379;-70
2023/08/19 00:11:09;;;;;;;;;;;;;;;25.93;67.99;101227.53;3968458;29;20115;-70
2023/08/19 00:13:11;;;;;;;;;;;;;;;25.91;67.97;101225.03;3969929;29;20021;-70
2023/08/19 00:15:13;;;;;;;;;;;;;;;25.89;68.06;101222.53;3969598;29;20408;-70
2023/08/19 00:17:16;;;;;;;;;;;;;;;25.88;68.35;101233.88;3968882;29;20024;-71
2023/08/19 00:19:18;;;;;;;;;;;;;;;25.85;68.14;101218.63;3969036;29;20012;-70
2023/08/19 00:21:19;;;;;;;;;;;;;;;25.83;68.41;101223.59;3968341;29;20028;-70
2023/08/19 00:23:23;;;;;;;;;;;;;;;25.82;68.69;101227.47;3968341;29;20456;-70
2023/08/19 00:25:27;;;;;;;;;;;;;;;25.81;68.67;101230.50;3959574;29;20016;-71
2023/08/19 00:27:29;;;;;;;;;;;;;;;25.80;68.36;101228.81;3968680;29;20020;-69
2023/08/19 00:29:30;;;;;;;;;;;;;;;25.79;68.60;101218.88;3959087;29;20028;-70
2023/08/19 00:31:32;;;;;;;;;;;;;;;25.79;68.43;101221.66;3959254;29;20001;-70
2023/08/19 00:33:35;;;;;;;;;;;;;;;25.77;68.72;101221.06;3968499;29;19931;-71
2023/08/19 00:35:38;;;;;;;;;;;;;;;25.76;68.49;101222.19;3966677;29;20119;-70
2023/08/19 00:37:39;;;;;;;;;;;;;;;25.76;68.83;101219.41;3965024;29;20043;-70
2023/08/19 00:39:41;;;;;;;;;;;;;;;25.75;68.43;101215.78;3968922;29;20036;-70
2023/08/19 00:41:48;;;;;;;;;;;;;;;25.74;68.99;101219.69;3967130;29;20345;-70
2023/08/19 00:43:50;;;;;;;;;;;;;;;25.74;68.87;101222.44;3969311;29;20382;-70
2023/08/19 00:45:52;;;;;;;;;;;;;;;25.72;68.60;101214.41;3967896;29;19933;-69
2023/08/19 00:47:54;;;;;;;;;;;;;;;25.71;68.80;101221.03;3972493;29;20023;-70
2023/08/19 00:49:56;;;;;;;;;;;;;;;25.70;68.89;101222.13;3968361;29;20027;-70
2023/08/19 00:51:58;;;;;;;;;;;;;;;25.68;69.01;101220.75;3957732;29;20439;-70
2023/08/19 00:54:00;;;;;;;;;;;;;;;25.66;68.95;101207.19;3967082;29;20496;-70
2023/08/19 00:56:02;;;;;;;;;;;;;;;25.66;69.16;101220.19;3967114;29;20373;-70
2023/08/19 00:58:07;;;;;;;;;;;;;;;25.65;68.91;101216.56;3968683;29;20016;-70
2023/08/19 01:00:10;;;;;;;;;;;;;;;25.64;69.14;101217.69;3968483;29;20041;-70
2023/08/19 01:02:12;;;;;;;;;;;;;;;25.63;68.93;101218.78;3968563;29;20024;-70
2023/08/19 01:04:13;;;;;;;;;;;;;;;25.62;69.09;101219.03;3981759;29;20027;-70
2023/08/19 01:06:18;;;;;;;;;;;;;;;25.61;69.25;101217.38;3968695;29;19940;-69
2023/08/19 01:08:22;;;;;;;;;;;;;;;25.61;69.06;101222.91;3952856;29;20040;-70
2023/08/19 01:10:25;;;;;;;;;;;;;;;25.60;69.17;101216.53;3968528;29;20036;-69
2023/08/19 01:12:29;;;;;;;;;;;;;;;25.59;69.35;101225.09;3966330;29;20043;-69
2023/08/19 01:14:35;;;;;;;;;;;;;;;25.58;68.99;101229.81;3953692;29;20408;-70
2023/08/19 01:16:38;;;;;;;;;;;;;;;25.58;69.01;101215.13;3967315;29;20019;-70
2023/08/19 01:18:41;;;;;;;;;;;;;;;25.57;69.14;101210.72;3957835;29;20032;-70
2023/08/19 01:20:43;;;;;;;;;;;;;;;25.55;69.39;101219.28;3951710;29;20056;-70
2023/08/19 01:22:46;;;;;;;;;;;;;;;25.53;69.32;101221.47;3968017;29;20020;-70
2023/08/19 01:24:50;;;;;;;;;;;;;;;25.50;69.20;101213.69;3969021;29;20030;-70
2023/08/19 01:26:52;;;;;;;;;;;;;;;25.49;69.35;101220.34;3968993;29;20047;-70
2023/08/19 01:28:54;;;;;;;;;;;;;;;25.48;69.00;101213.13;3968312;29;20027;-70
2023/08/19 01:30:56;;;;;;;;;;;;;;;25.46;68.99;101213.41;3968322;29;20421;-70
2023/08/19 01:32:58;;;;;;;;;;;;;;;25.46;69.32;101215.34;3971896;29;20021;-70
2023/08/19 01:35:00;;;;;;;;;;;;;;;25.44;69.09;101203.69;3967722;29;19929;-70
2023/08/19 01:37:03;;;;;;;;;;;;;;;25.43;69.02;101202.88;3967894;29;20032;-70
2023/08/19 01:39:08;;;;;;;;;;;;;;;25.41;68.95;101210.59;3969181;29;20016;-70
2023/08/19 01:41:11;;;;;;;;;;;;;;;25.39;68.95;101201.72;3965801;29;20023;-70
2023/08/19 01:43:14;;;;;;;;;;;;;;;25.36;68.93;101200.34;3957270;29;20584;-70
2023/08/19 01:45:15;;;;;;;;;;;;;;;25.35;68.97;101200.59;3968129;29;20036;-70
2023/08/19 01:47:17;;;;;;;;;;;;;;;25.33;69.29;101189.00;3967574;29;20004;-70
2023/08/19 01:49:21;;;;;;;;;;;;;;;25.30;69.07;101190.34;3964829;29;20024;-70
2023/08/19 01:51:23;;;;;;;;;;;;;;;25.27;69.29;101185.31;3967365;29;20028;-70
2023/08/19 01:53:25;;;;;;;;;;;;;;;25.27;69.50;101193.59;3972887;29;20053;-71
2023/08/19 01:55:27;;;;;;;;;;;;;;;25.24;69.49;101185.03;3967948;29;20016;-70
2023/08/19 01:57:29;;;;;;;;;;;;;;;25.23;69.39;101186.09;3967649;29;20031;-71
2023/08/19 01:59:32;;;;;;;;;;;;;;;25.21;69.14;101183.59;3965791;29;20020;-70
2023/08/19 02:01:34;;;;;;;;;;;;;;;25.19;69.39;101192.16;3966645;29;20028;-70
2023/08/19 02:03:37;;;;;;;;;;;;;;;25.17;69.66;101191.59;3968257;29;20480;-71
2023/08/19 02:05:40;;;;;;;;;;;;;;;25.15;69.45;101195.72;3968053;29;20027;-71
2023/08/19 02:07:42;;;;;;;;;;;;;;;25.15;69.49;101199.31;3967988;29;19980;-71
2023/08/19 02:09:46;;;;;;;;;;;;;;;25.13;69.88;101201.50;3967534;29;19986;-71
2023/08/19 02:11:51;;;;;;;;;;;;;;;25.12;69.45;101197.06;3967971;29;20325;-70
2023/08/19 02:13:56;;;;;;;;;;;;;;;25.10;69.50;101201.22;3958389;29;19930;-70
2023/08/19 02:15:59;;;;;;;;;;;;;;;25.08;69.66;101200.63;3972277;29;19986;-71
2023/08/19 02:18:01;;;;;;;;;;;;;;;25.06;69.70;101200.06;3966583;29;20044;-70
2023/08/19 02:20:05;;;;;;;;;;;;;;;25.04;69.78;101199.50;3972931;29;20028;-70
2023/08/19 02:22:07;;;;;;;;;;;;;;;25.01;69.57;101198.09;3967743;29;20020;-70
2023/08/19 02:24:09;;;;;;;;;;;;;;;25.00;69.79;101193.69;3968736;29;20008;-70
2023/08/19 02:26:10;;;;;;;;;;;;;;;24.97;69.33;101194.19;3972823;29;20036;-70
2023/08/19 02:28:12;;;;;;;;;;;;;;;24.95;69.48;101191.69;3957851;29;19930;-70
2023/08/19 02:30:16;;;;;;;;;;;;;;;24.93;69.62;101193.03;3969006;29;20089;-70
2023/08/19 02:32:18;;;;;;;;;;;;;;;24.92;69.54;101196.91;3974759;29;20012;-70
2023/08/19 02:34:20;;;;;;;;;;;;;;;24.89;69.87;101197.41;3970497;29;20037;-70
2023/08/19 02:36:22;;;;;;;;;;;;;;;24.88;70.01;101201.28;3975442;29;20053;-69
2023/08/19 02:38:23;;;;;;;;;;;;;;;24.86;69.77;101197.94;3971231;29;20027;-70
2023/08/19 02:40:25;;;;;;;;;;;;;;;24.83;70.22;101202.91;3971106;29;20417;-69
2023/08/19 02:42:27;;;;;;;;;;;;;;;24.82;69.86;101203.97;3968943;29;20354;-69
2023/08/19 02:44:29;;;;;;;;;;;;;;;24.80;70.27;101202.59;3960424;29;20032;-69
2023/08/19 02:46:34;;;;;;;;;;;;;;;24.79;70.26;101204.50;3975641;29;20032;-70
2023/08/19 02:48:44;;;;;;;;;;;;;;;24.79;70.42;101207.28;3970552;29;20024;-69
2023/08/19 02:50:47;;;;;;;;;;;;;;;24.78;69.96;101211.16;3970261;29;20052;-69
2023/08/19 02:52:49;;;;;;;;;;;;;;;24.77;70.00;101208.66;3960807;29;20037;-69
2023/08/19 02:54:51;;;;;;;;;;;;;;;24.76;69.94;101204.22;3969582;29;20035;-69
2023/08/19 02:56:53;;;;;;;;;;;;;;;24.74;70.09;101207.22;3970224;29;20423;-69
2023/08/19 02:58:55;;;;;;;;;;;;;;;24.72;70.29;101206.66;3967284;29;20020;-69
2023/08/19 03:00:59;;;;;;;;;;;;;;;24.69;70.11;101204.44;3969515;29;20028;-69
2023/08/19 03:03:03;;;;;;;;;;;;;;;24.69;69.97;101201.66;3969888;29;20373;-69
2023/08/19 03:05:05;;;;;;;;;;;;;;;24.67;70.08;101205.75;3975568;29;20614;-70
2023/08/19 03:07:08;;;;;;;;;;;;;;;24.65;70.30;101208.78;3975497;29;20504;-69
2023/08/19 03:09:10;;;;;;;;;;;;;;;24.64;70.37;101207.13;3969256;29;20027;-70
2023/08/19 03:11:12;;;;;;;;;;;;;;;24.63;70.18;101213.75;3969164;29;20024;-70
2023/08/19 03:13:14;;;;;;;;;;;;;;;24.59;70.09;101207.91;3969878;29;20012;-69
2023/08/19 03:15:16;;;;;;;;;;;;;;;24.59;70.41;101205.16;3969913;29;20017;-70
2023/08/19 03:17:19;;;;;;;;;;;;;;;24.57;70.62;101212.03;3968439;29;20677;-69
2023/08/19 03:19:23;;;;;;;;;;;;;;;24.55;70.28;101215.00;3969985;29;20019;-69
2023/08/19 03:21:25;;;;;;;;;;;;;;;24.53;70.50;101214.44;3968180;29;20020;-69
2023/08/19 03:23:27;;;;;;;;;;;;;;;24.53;70.76;101217.22;3970979;29;20055;-69
2023/08/19 03:25:29;;;;;;;;;;;;;;;24.52;70.76;101217.47;3960020;29;20055;-69
2023/08/19 03:27:32;;;;;;;;;;;;;;;24.51;70.59;101224.06;3968186;29;20020;-69
2023/08/19 03:29:34;;;;;;;;;;;;;;;24.48;70.85;101219.88;3968624;29;20137;-69
2023/08/19 03:31:36;;;;;;;;;;;;;;;24.46;70.53;101222.09;3969345;29;20032;-69
2023/08/19 03:33:38;;;;;;;;;;;;;;;24.44;70.50;101219.59;3974566;29;20100;-69
2023/08/19 03:35:42;;;;;;;;;;;;;;;24.44;70.44;101221.53;3959937;29;20025;-69
2023/08/19 03:37:45;;;;;;;;;;;;;;;24.41;70.98;101214.56;3974652;29;20031;-69
2023/08/19 03:39:47;;;;;;;;;;;;;;;24.42;70.79;101223.69;3959419;29;20036;-69
2023/08/19 03:41:49;;;;;;;;;;;;;;;24.42;70.72;101220.91;3967313;29;20038;-69
2023/08/19 03:43:51;;;;;;;;;;;;;;;24.40;71.01;101225.88;3969769;29;20032;-69
2023/08/19 03:45:53;;;;;;;;;;;;;;;24.38;70.64;101228.91;3969377;29;20024;-69
2023/08/19 03:47:55;;;;;;;;;;;;;;;24.39;70.83;101215.91;3959200;29;20016;-69
2023/08/19 03:49:57;;;;;;;;;;;;;;;24.38;70.75;101223.38;3969378;29;20083;-69
2023/08/19 03:52:00;;;;;;;;;;;;;;;24.36;70.83;101219.22;3968404;29;19930;-69
2023/08/19 03:54:02;;;;;;;;;;;;;;;24.35;70.97;101223.06;3969486;29;20024;-69
2023/08/19 03:56:05;;;;;;;;;;;;;;;24.34;70.94;101218.63;3967533;29;20028;-69
2023/08/19 03:58:07;;;;;;;;;;;;;;;24.34;70.76;101226.91;3969554;29;19930;-69
2023/08/19 04:00:10;;;;;;;;;;;;;;;24.33;71.13;101226.09;3967640;29;20009;-69
2023/08/19 04:02:21;;;;;;;;;;;;;;;24.33;70.70;101222.50;3952462;29;20032;-69
2023/08/19 04:04:23;;;;;;;;;;;;;;;24.31;71.16;101228.28;3968031;29;20020;-69
2023/08/19 04:06:26;;;;;;;;;;;;;;;24.29;71.24;101231.28;3951801;29;20025;-69
2023/08/19 04:08:31;;;;;;;;;;;;;;;24.27;70.76;101224.34;3967043;29;20036;-69
2023/08/19 04:10:33;;;;;;;;;;;;;;;24.27;70.74;101233.44;3969621;29;21316;-69
2023/08/19 04:12:34;;;;;;;;;;;;;;;24.27;70.89;101229.88;3969227;29;20469;-69
2023/08/19 04:14:36;;;;;;;;;;;;;;;24.25;70.92;101234.81;3959312;29;20028;-69
2023/08/19 04:16:38;;;;;;;;;;;;;;;24.25;71.28;101240.34;3959297;29;20028;-69
2023/08/19 04:18:40;;;;;;;;;;;;;;;24.23;70.90;101240.59;3969082;29;19937;-69
2023/08/19 04:20:42;;;;;;;;;;;;;;;24.23;71.10;101237.84;3973908;29;20036;-69
2023/08/19 04:22:44;;;;;;;;;;;;;;;24.22;71.33;101247.19;3968978;29;20028;-69
2023/08/19 04:24:50;;;;;;;;;;;;;;;24.22;71.30;101244.44;3969172;29;20024;-69
2023/08/19 04:26:52;;;;;;;;;;;;;;;24.22;71.52;101246.38;3959356;29;20469;-69
2023/08/19 04:28:54;;;;;;;;;;;;;;;24.22;71.53;101247.19;3959151;29;20314;-69
2023/08/19 04:31:04;;;;;;;;;;;;;;;24.21;71.55;101244.69;3958721;29;20036;-69
2023/08/19 04:33:11;;;;;;;;;;;;;;;24.22;71.54;101252.72;3968667;29;20023;-69
2023/08/19 04:35:15;;;;;;;;;;;;;;;24.21;71.58;101250.22;3974065;29;20471;-70
2023/08/19 04:37:17;;;;;;;;;;;;;;;24.21;71.75;101252.97;3967030;29;20020;-70
2023/08/19 04:39:20;;;;;;;;;;;;;;;24.21;71.45;101248.28;3966861;29;19986;-69
2023/08/19 04:41:25;;;;;;;;;;;;;;;24.22;71.52;101251.88;3973819;29;20395;-69
2023/08/19 04:43:28;;;;;;;;;;;;;;;24.23;71.52;101253.53;3973947;29;20411;-69
2023/08/19 04:45:30;;;;;;;;;;;;;;;24.24;71.46;101256.03;3966955;29;20016;-69
2023/08/19 04:47:32;;;;;;;;;;;;;;;24.25;71.62;101259.66;3973428;29;20412;-69
2023/08/19 04:49:34;;;;;;;;;;;;;;;24.26;71.70;101258.53;3968470;29;20376;-69
2023/08/19 04:51:36;;;;;;;;;;;;;;;24.27;71.83;101254.72;3958326;29;20012;-69
2023/08/19 04:53:38;;;;;;;;;;;;;;;24.29;71.61;101252.50;3973622;29;20040;-69
2023/08/19 04:55:40;;;;;;;;;;;;;;;24.31;71.51;101255.03;3967279;29;20466;-69
2023/08/19 04:57:43;;;;;;;;;;;;;;;24.32;71.90;101257.53;3968112;29;20032;-69
2023/08/19 04:59:46;;;;;;;;;;;;;;;24.34;71.50;101255.38;3958854;29;19940;-70
2023/08/19 05:01:50;;;;;;;;;;;;;;;24.35;71.71;101247.91;3967371;29;19979;-70
2023/08/19 05:03:53;;;;;;;;;;;;;;;24.35;71.63;101248.72;3967524;29;20008;-70
2023/08/19 05:05:55;;;;;;;;;;;;;;;24.36;71.86;101250.41;3965990;29;20024;-70
2023/08/19 05:08:04;;;;;;;;;;;;;;;24.38;71.88;101253.75;3966822;29;20032;-70
2023/08/19 05:10:07;;;;;;;;;;;;;;;24.38;71.57;101256.50;3965734;29;20031;-70
2023/08/19 05:12:09;;;;;;;;;;;;;;;24.40;71.90;101251.53;3966585;29;20032;-70
2023/08/19 05:14:13;;;;;;;;;;;;;;;24.40;71.55;101257.06;3973750;29;20024;-69
2023/08/19 05:16:15;;;;;;;;;;;;;;;24.41;71.64;101255.97;3965938;29;20403;-70
2023/08/19 05:18:18;;;;;;;;;;;;;;;24.41;71.62;101255.16;3965000;29;20028;-70
2023/08/19 05:20:20;;;;;;;;;;;;;;;24.41;71.55;101261.50;3968226;29;20382;-70
2023/08/19 05:22:22;;;;;;;;;;;;;;;24.43;71.54;101267.59;3966530;29;20044;-70
2023/08/19 05:24:24;;;;;;;;;;;;;;;24.44;71.56;101262.94;3968048;29;20027;-70
2023/08/19 05:26:26;;;;;;;;;;;;;;;24.45;71.92;101265.44;3972823;29;20025;-70
2023/08/19 05:28:27;;;;;;;;;;;;;;;24.45;71.62;101264.56;3968284;29;20047;-70
2023/08/19 05:30:31;;;;;;;;;;;;;;;24.46;71.59;101260.75;3968356;29;20027;-70
2023/08/19 05:32:32;;;;;;;;;;;;;;;24.47;71.63;101259.66;3967968;29;20020;-70
2023/08/19 05:34:34;;;;;;;;;;;;;;;24.48;71.53;101258.53;3968599;29;20028;-70
2023/08/19 05:36:35;;;;;;;;;;;;;;;24.49;71.95;101256.63;3968391;29;20024;-69
2023/08/19 05:38:37;;;;;;;;;;;;;;;24.51;71.85;101259.97;3952501;29;20024;-69
2023/08/19 05:40:40;;;;;;;;;;;;;;;24.52;71.86;101256.13;3968396;29;19960;-69
2023/08/19 05:42:42;;;;;;;;;;;;;;;24.53;71.83;101257.78;3967842;29;20036;-69
2023/08/19 05:44:44;;;;;;;;;;;;;;;24.55;71.80;101258.38;3968079;29;20029;-69
2023/08/19 05:46:47;;;;;;;;;;;;;;;24.58;71.46;101266.16;3968047;29;20020;-69
2023/08/19 05:48:49;;;;;;;;;;;;;;;24.58;71.51;101261.47;3968991;29;20028;-69
2023/08/19 05:50:50;;;;;;;;;;;;;;;24.60;71.48;101263.97;3969742;29;20382;-69
2023/08/19 05:52:52;;;;;;;;;;;;;;;24.62;71.46;101257.09;3968789;29;19933;-69
2023/08/19 05:54:54;;;;;;;;;;;;;;;24.64;71.87;101259.63;3968101;29;20028;-69
2023/08/19 05:56:55;;;;;;;;;;;;;;;24.66;71.58;101259.34;3967966;29;20032;-69
2023/08/19 05:58:57;;;;;;;;;;;;;;;24.68;71.68;101259.91;3968300;29;20037;-69
2023/08/19 06:00:59;;;;;;;;;;;;;;;24.69;71.29;101258.84;3967653;29;20024;-69
2023/08/19 06:03:03;;;;;;;;;;;;;;;24.70;71.53;101257.72;3967507;29;20377;-69
2023/08/19 06:05:05;;;;;;;;;;;;;;;24.72;71.63;101256.38;3970384;29;20012;-69
2023/08/19 06:07:07;;;;;;;;;;;;;;;24.73;71.37;101257.19;3971513;29;20028;-69
2023/08/19 06:09:09;;;;;;;;;;;;;;;24.75;71.20;101260.53;3971826;29;20085;-69
2023/08/19 06:11:12;;;;;;;;;;;;;;;24.76;71.27;101265.78;3971434;29;20024;-69
2023/08/19 06:13:14;;;;;;;;;;;;;;;24.77;71.17;101264.72;3971183;29;20487;-69
2023/08/19 06:15:16;;;;;;;;;;;;;;;24.78;71.25;101269.16;3971260;29;20025;-70
2023/08/19 06:17:18;;;;;;;;;;;;;;;24.79;71.38;101268.03;3970522;29;20382;-69
2023/08/19 06:19:21;;;;;;;;;;;;;;;24.80;71.24;101268.91;3972495;29;20020;-69
2023/08/19 06:21:24;;;;;;;;;;;;;;;24.81;71.68;101270.53;3970340;29;20472;-70
2023/08/19 06:23:26;;;;;;;;;;;;;;;24.82;71.46;101274.97;3971066;29;20039;-69
2023/08/19 06:25:28;;;;;;;;;;;;;;;24.83;71.20;101274.72;3970895;29;20020;-69
2023/08/19 06:27:30;;;;;;;;;;;;;;;24.85;71.15;101277.22;3970901;29;19937;-70
2023/08/19 06:29:31;;;;;;;;;;;;;;;24.86;71.43;101275.28;3970484;29;20027;-69
2023/08/19 06:31:34;;;;;;;;;;;;;;;24.87;71.37;101276.97;3971365;29;20031;-70
2023/08/19 06:33:36;;;;;;;;;;;;;;;24.87;71.10;101283.31;3975796;29;20024;-71
2023/08/19 06:35:41;;;;;;;;;;;;;;;24.88;71.19;101279.47;3971520;29;20370;-70
2023/08/19 06:37:43;;;;;;;;;;;;;;;24.89;71.09;101283.06;3970232;29;20032;-70
2023/08/19 06:39:47;;;;;;;;;;;;;;;24.91;71.19;101280.91;3971255;29;20016;-70
2023/08/19 06:41:48;;;;;;;;;;;;;;;24.91;70.97;101281.72;3970029;29;20028;-70
2023/08/19 06:43:54;;;;;;;;;;;;;;;24.92;71.23;101282.53;3970069;29;20455;-70
2023/08/19 06:45:57;;;;;;;;;;;;;;;24.92;70.84;101282.53;3969631;29;20028;-70
2023/08/19 06:47:59;;;;;;;;;;;;;;;24.93;70.96;101289.75;3970552;29;20040;-70
2023/08/19 06:50:01;;;;;;;;;;;;;;;24.93;71.03;101286.97;3970165;29;20024;-70
2023/08/19 06:52:05;;;;;;;;;;;;;;;24.95;70.91;101293.06;3970263;29;20033;-70
2023/08/19 06:54:08;;;;;;;;;;;;;;;24.94;71.15;101291.44;3971095;29;20052;-70
2023/08/19 06:56:12;;;;;;;;;;;;;;;24.95;71.03;101285.63;3970173;29;20042;-69
2023/08/19 06:58:16;;;;;;;;;;;;;;;24.95;71.11;101282.03;3970355;29;20341;-70
2023/08/19 07:00:18;;;;;;;;;;;;;;;24.97;70.83;101288.16;3970045;29;20057;-69
2023/08/19 07:02:20;;;;;;;;;;;;;;;24.96;71.16;101295.56;3970364;29;20378;-70
2023/08/19 07:04:23;;;;;;;;;;;;;;;24.97;70.89;101304.72;3970087;29;20382;-69
2023/08/19 07:06:24;;;;;;;;;;;;;;;24.97;70.81;101300.03;3970081;29;20023;-69
2023/08/19 07:08:30;;;;;;;;;;;;;;;24.97;71.32;101315.78;3969783;29;20033;-69
2023/08/19 07:10:32;;;;;;;;;;;;;;;24.98;71.38;101314.66;3970828;29;20052;-69
2023/08/19 07:12:34;;;;;;;;;;;;;;;25.00;71.03;101318.00;3970632;29;20369;-69
2023/08/19 07:14:38;;;;;;;;;;;;;;;24.99;71.30;101313.56;3970796;29;20472;-69
2023/08/19 07:16:40;;;;;;;;;;;;;;;25.00;71.20;101313.31;3972123;29;20064;-69
2023/08/19 07:18:42;;;;;;;;;;;;;;;25.02;71.17;101315.00;3960881;29;20028;-69
2023/08/19 07:20:44;;;;;;;;;;;;;;;25.02;71.13;101315.81;3969651;29;20012;-69
2023/08/19 07:22:48;;;;;;;;;;;;;;;25.04;70.69;101321.09;3969459;29;19929;-69
2023/08/19 07:24:51;;;;;;;;;;;;;;;25.06;71.19;101318.88;3969778;29;20370;-69
2023/08/19 07:26:54;;;;;;;;;;;;;;;25.09;71.42;101315.59;3969257;29;20027;-70
2023/08/19 07:28:56;;;;;;;;;;;;;;;25.09;71.16;101315.59;3958742;29;20016;-69
2023/08/19 07:30:58;;;;;;;;;;;;;;;25.11;70.87;101321.69;3968308;29;20420;-71
2023/08/19 07:33:00;;;;;;;;;;;;;;;25.13;71.06;101317.59;3966768;29;20118;-71
2023/08/19 07:35:02;;;;;;;;;;;;;;;25.14;71.50;101322.03;3969409;29;20028;-71
2023/08/19 07:37:04;;;;;;;;;;;;;;;25.16;71.23;101321.78;3969877;29;20032;-71
2023/08/19 07:39:06;;;;;;;;;;;;;;;25.18;71.84;101316.81;3969368;29;19954;-71
2023/08/19 07:41:10;;;;;;;;;;;;;;;25.21;71.52;101326.50;3969393;29;20023;-71
2023/08/19 07:43:12;;;;;;;;;;;;;;;25.23;71.35;101327.06;3968961;29;19933;-71
2023/08/19 07:45:14;;;;;;;;;;;;;;;25.25;71.17;101325.72;3969773;29;20437;-71
2023/08/19 07:47:15;;;;;;;;;;;;;;;25.26;70.81;101323.78;3969898;29;20032;-71
2023/08/19 07:49:18;;;;;;;;;;;;;;;25.30;70.71;101324.97;3969315;29;19977;-71
2023/08/19 07:51:20;;;;;;;;;;;;;;;25.32;70.29;101322.78;3974578;29;20016;-71
2023/08/19 07:53:22;;;;;;;;;;;;;;;25.34;70.86;101317.81;3970356;29;20028;-70
2023/08/19 07:55:24;;;;;;;;;;;;;;;25.38;70.58;101321.72;3959235;29;20037;-70
2023/08/19 07:57:28;;;;;;;;;;;;;;;25.40;70.57;101321.47;3969217;29;20040;-70
2023/08/19 07:59:30;;;;;;;;;;;;;;;25.41;70.28;101318.44;3968819;29;20024;-69
2023/08/19 08:01:32;;;;;;;;;;;;;;;25.45;70.17;101318.75;3968797;29;20032;-69
2023/08/19 08:03:34;;;;;;;;;;;;;;;25.46;69.85;101315.72;3965863;29;20393;-70
2023/08/19 08:05:36;;;;;;;;;;;;;;;25.49;70.41;101317.94;3965477;29;20035;-70
2023/08/19 08:07:38;;;;;;;;;;;;;;;25.52;69.94;101316.59;3967705;29;20032;-69
2023/08/19 08:09:43;;;;;;;;;;;;;;;25.56;70.07;101326.03;3957975;29;20144;-70
2023/08/19 08:11:47;;;;;;;;;;;;;;;25.58;69.86;101315.56;3967073;29;20044;-71
2023/08/19 08:13:51;;;;;;;;;;;;;;;25.60;69.72;101310.56;3968574;29;20367;-70
2023/08/19 08:15:53;;;;;;;;;;;;;;;25.63;70.23;101321.13;3968569;29;19952;-70
2023/08/19 08:17:56;;;;;;;;;;;;;;;25.65;69.66;101318.91;3969072;29;20024;-70
2023/08/19 08:19:57;;;;;;;;;;;;;;;25.67;69.24;101308.44;3968697;29;20456;-69
2023/08/19 08:21:59;;;;;;;;;;;;;;;25.70;69.83;101320.88;3969106;29;20028;-70
2023/08/19 08:24:02;;;;;;;;;;;;;;;25.72;69.17;101311.22;3970275;29;19933;-70
2023/08/19 08:26:05;;;;;;;;;;;;;;;25.75;69.41;101312.63;3968458;29;20021;-70
2023/08/19 08:28:07;;;;;;;;;;;;;;;25.78;69.41;101314.03;3967867;29;20028;-69
2023/08/19 08:30:11;;;;;;;;;;;;;;;25.79;69.36;101311.00;3968759;29;20027;-70
2023/08/19 08:32:13;;;;;;;;;;;;;;;25.83;68.90;101316.81;3968303;29;20021;-70
2023/08/19 08:34:15;;;;;;;;;;;;;;;25.84;69.17;101312.97;3943805;30;20291;-70
2023/08/19 08:36:17;;;;;;;;;;;;;;;25.86;68.89;101311.63;3969150;29;20023;-70
2023/08/19 08:38:19;;;;;;;;;;;;;;;25.89;68.98;101305.53;3968822;29;20375;-71
2023/08/19 08:40:21;;;;;;;;;;;;;;;25.92;68.58;101306.09;3968427;29;20027;-71
2023/08/19 08:42:23;;;;;;;;;;;;;;;25.93;68.41;101308.59;3968329;29;20037;-71
2023/08/19 08:44:26;;;;;;;;;;;;;;;25.96;68.63;101308.06;3965446;29;19970;-70
2023/08/19 08:46:29;;;;;;;;;;;;;;;25.97;68.26;101307.03;3968171;29;20028;-70
2023/08/19 08:48:33;;;;;;;;;;;;;;;25.99;68.37;101298.44;3968334;29;20028;-70
2023/08/19 08:50:35;;;;;;;;;;;;;;;26.02;68.22;101297.88;3968112;29;20024;-71
2023/08/19 08:52:37;;;;;;;;;;;;;;;26.05;68.08;101305.66;3969376;29;20040;-71
2023/08/19 08:54:39;;;;;;;;;;;;;;;26.06;68.14;101305.38;3968334;29;20363;-70
2023/08/19 08:56:41;;;;;;;;;;;;;;;26.08;68.05;101305.97;3968660;29;20029;-70
2023/08/19 08:58:43;;;;;;;;;;;;;;;26.12;68.32;101314.56;3967950;29;20383;-70
2023/08/19 09:00:45;;;;;;;;;;;;;;;26.14;68.08;101314.31;3968497;29;20031;-70
2023/08/19 09:02:48;;;;;;;;;;;;;;;26.17;68.19;101319.28;3968181;29;20032;-70
2023/08/19 09:04:51;;;;;;;;;;;;;;;26.19;67.88;101314.31;3968545;29;20389;-70
2023/08/19 09:06:54;;;;;;;;;;;;;;;26.20;67.66;101308.50;3968638;29;20020;-71
2023/08/19 09:08:57;;;;;;;;;;;;;;;26.23;67.91;101313.50;3968897;29;20025;-71
2023/08/19 09:11:00;;;;;;;;;;;;;;;26.25;67.81;101310.47;3967563;29;20026;-71
2023/08/19 09:13:03;;;;;;;;;;;;;;;26.28;67.77;101306.34;3967867;29;20306;-71
2023/08/19 09:15:05;;;;;;;;;;;;;;;26.30;67.28;101306.91;3969202;29;20028;-69
2023/08/19 09:17:07;;;;;;;;;;;;;;;26.32;67.66;101308.31;3969439;29;20028;-70
2023/08/19 09:19:11;;;;;;;;;;;;;;;26.34;67.42;101313.59;3970782;29;20049;-70
2023/08/19 09:21:13;;;;;;;;;;;;;;;26.38;67.38;101312.78;3967869;29;20023;-70
2023/08/19 09:23:15;;;;;;;;;;;;;;;26.39;67.46;101314.41;3968274;29;20036;-70
2023/08/19 09:25:17;;;;;;;;;;;;;;;26.42;67.12;101310.28;3968681;29;19929;-70
2023/08/19 09:27:25;;;;;;;;;;;;;;;26.43;66.94;101312.78;3968235;29;20020;-70
2023/08/19 09:29:27;;;;;;;;;;;;;;;26.45;67.26;101320.84;3967854;29;20386;-69
2023/08/19 09:31:29;;;;;;;;;;;;;;;26.48;66.78;101322.25;3968428;29;20021;-69
2023/08/19 09:33:31;;;;;;;;;;;;;;;26.50;66.85;101326.38;3967631;29;20024;-70
2023/08/19 09:35:37;;;;;;;;;;;;;;;26.51;66.59;101314.22;3968168;29;20019;-70
2023/08/19 09:37:40;;;;;;;;;;;;;;;26.52;66.61;101310.34;3972817;29;20505;-71
2023/08/19 09:39:42;;;;;;;;;;;;;;;26.55;66.75;101307.03;3967440;29;20444;-70
2023/08/19 09:41:44;;;;;;;;;;;;;;;26.57;66.68;101304.00;3967617;29;20020;-71
2023/08/19 09:43:46;;;;;;;;;;;;;;;26.58;66.81;101308.41;3967834;29;20035;-71
2023/08/19 09:45:48;;;;;;;;;;;;;;;26.59;66.54;101308.16;3967986;29;20552;-71
2023/08/19 09:47:51;;;;;;;;;;;;;;;26.62;66.47;101301.25;3969185;29;20041;-71
2023/08/19 09:49:53;;;;;;;;;;;;;;;26.63;66.15;101305.69;3967547;29;20366;-71
2023/08/19 09:51:56;;;;;;;;;;;;;;;26.65;66.64;101305.41;3967167;29;20055;-70
2023/08/19 09:53:58;;;;;;;;;;;;;;;26.66;66.54;101307.94;3957972;29;19960;-70
2023/08/19 09:56:00;;;;;;;;;;;;;;;26.66;66.31;101307.94;3965524;29;20020;-70
2023/08/19 09:58:02;;;;;;;;;;;;;;;26.68;66.03;101313.19;3967278;29;20020;-70
2023/08/19 10:00:05;;;;;;;;;;;;;;;26.70;66.40;101303.50;3967421;29;20441;-71
2023/08/19 10:02:08;;;;;;;;;;;;;;;26.71;66.39;101304.31;3968106;29;19937;-71
2023/08/19 10:04:10;;;;;;;;;;;;;;;26.73;66.22;101304.91;3966012;29;20452;-71
2023/08/19 10:06:11;;;;;;;;;;;;;;;26.75;66.06;101308.22;3967343;29;19969;-71
2023/08/19 10:08:19;;;;;;;;;;;;;;;26.77;66.03;101303.25;3968082;29;19936;-71
2023/08/19 10:10:21;;;;;;;;;;;;;;;26.77;65.59;101301.31;3967411;29;20032;-71
2023/08/19 10:12:23;;;;;;;;;;;;;;;26.78;66.02;101300.19;3967578;29;20021;-71
2023/08/19 10:14:27;;;;;;;;;;;;;;;26.81;66.12;101298.84;3967815;29;20017;-70
2023/08/19 10:16:29;;;;;;;;;;;;;;;26.82;65.72;101294.97;3968427;29;20028;-69
2023/08/19 10:18:32;;;;;;;;;;;;;;;26.84;65.50;101295.50;3968002;29;20028;-70
2023/08/19 10:20:33;;;;;;;;;;;;;;;26.87;65.72;101306.06;3967449;29;20028;-69
2023/08/19 10:22:35;;;;;;;;;;;;;;;26.89;65.65;101295.53;3968213;29;19940;-70
2023/08/19 10:24:38;;;;;;;;;;;;;;;26.90;65.23;101302.75;3965982;29;20024;-69
2023/08/19 10:26:40;;;;;;;;;;;;;;;26.92;65.24;101296.91;3968235;29;19936;-70
2023/08/19 10:28:43;;;;;;;;;;;;;;;26.92;65.30;101294.97;3967496;29;20028;-71